Nea Filadelfia, Greece

10:55 AM EET on February 09, 2016 (GMT +0200)
Nea Philadelphia | | Change Station
CLOSE
Current Station
Personal Weather Station
Location: Nea Philadephia - Athens, Attiki
Elevation: 387 ft
Nearby Weather Stations

Elev 387 ft 38.04 °N, 23.74 °E | Updated 192 days ago

Clear
Clear
52 °F
Feels Like 52 °F
N
5
Wind Variable Wind from SW
Gusts mph

Today
High -- | Low -- °F
--% Chance of Precip.
Yesterday
High -- | Low -- °F
Precip. -- in
Pressure 30.27 in
Visibility 5.0 miles
Clouds Few 2000 ft
Dew Point 40 °F
Humidity 63%
Rainfall in
Snow Depth Not available.
7:22 AM 5:56 PM
New Moon, 1% visible
METAR LGEL 090820Z 00000KT 8000 FEW020 12/06 Q1025
Pressure 30.27 in
Visibility 5.0 miles
Clouds Few 2000 ft
Dew Point 40 °F
Humidity 63%
Rainfall in
Snow Depth Not available.
7:22 AM 5:56 PM
New Moon, 1% visible
METAR LGEL 090820Z 00000KT 8000 FEW020 12/06 Q1025

10-Day Weather Forecast

Almanac

Astronomy

Feb. 09, 2016 Rise Set
Actual Time
Civil Twilight
Nautical Twilight
Astronomical Twilight
Moon
Length of Visible Light
Length of Day
Tomorrow will be .
, % of the Moon is Illuminated

Today's Extremes

Country Highs Country Lows

Community

WunderPhotos

Upload Photos

1,891,571 photos uploaded!

WunderBlog® & News

Nearby

Air Quality

  Air Quality AQ Index Pollutant
Not available.

Snow Depth

Station Depth Elevation

Earthquake Activity

City Distance Mag. Time & Date
Minimum magnitude displayed is 2.5.

Coastal Water Temperatures

Place Temperature

Stations

Nearby Weather Stations

Station Location Temp. Windchill Dew Point Humidity Wind Precip. Elev Updated Type